Time;durP1;ratioP1;P1;durP2;ratioP2;P2;SDS_P1;SDS_P2;PMS_P1;PMS_P2;Temp;Humidity;BMP_temperature;BMP_pressure;BME280_temperature;BME280_humidity;BME280_pressure;Samples;Min_cycle;Max_cycle;Signal;HPM_P1;HPM_P2
2022/10/12 00:00:18;;;;;;;15.07;5.93;;;;;;;7.15;89.02;102418.78;5240744;28;20028;-71
2022/10/12 00:02:49;;;;;;;17.93;6.87;;;;;;;7.21;89.96;102433.47;5245848;28;20112;-70
2022/10/12 00:05:20;;;;;;;12.53;6.27;;;;;;;7.05;90.08;102423.31;5249213;28;20472;-70
2022/10/12 00:07:52;;;;;;;13.97;5.97;;;;;;;7.06;90.02;102432.84;5241176;28;20033;-71
2022/10/12 00:10:23;;;;;;;16.60;5.90;;;;;;;6.97;90.50;102431.28;5240319;28;20037;-70
2022/10/12 00:12:54;;;;;;;16.17;6.77;;;;;;;7.18;91.12;102439.56;5252243;28;20024;-70
2022/10/12 00:15:26;;;;;;;13.93;6.77;;;;;;;7.14;91.51;102427.47;5253350;28;20041;-70
2022/10/12 00:17:57;;;;;;;14.00;6.60;;;;;;;7.06;91.77;102425.03;5236569;28;20499;-70
2022/10/12 00:20:28;;;;;;;12.70;5.40;;;;;;;7.10;91.44;102424.06;5239909;28;20033;-70
2022/10/12 00:22:59;;;;;;;17.90;6.30;;;;;;;6.96;92.20;102419.16;5248544;28;20021;-71
2022/10/12 00:25:35;;;;;;;15.93;6.43;;;;;;;7.04;92.44;102425.94;5250713;28;20045;-70
2022/10/12 00:28:07;;;;;;;10.40;5.23;;;;;;;6.98;92.15;102426.94;5243655;28;20029;-70
2022/10/12 00:30:41;;;;;;;15.13;5.67;;;;;;;6.88;92.06;102432.31;5237816;28;20025;-71
2022/10/12 00:33:12;;;;;;;13.18;5.90;;;;;;;6.90;91.43;102421.88;5245510;28;20017;-70
2022/10/12 00:35:44;;;;;;;14.33;6.07;;;;;;;6.88;92.12;102426.22;5251366;28;20047;-71
2022/10/12 00:38:15;;;;;;;16.53;6.17;;;;;;;6.77;91.73;102419.47;5249813;28;20040;-70
2022/10/12 00:40:47;;;;;;;14.80;5.50;;;;;;;6.73;92.17;102430.00;5247079;28;20029;-71
2022/10/12 00:43:37;;;;;;;17.50;6.60;;;;;;;7.00;91.79;102427.75;5235257;28;20029;-71
2022/10/12 00:46:29;;;;;;;10.57;5.10;;;;;;;6.90;93.50;102429.69;5236794;28;20030;-71
2022/10/12 00:49:00;;;;;;;12.70;5.40;;;;;;;6.74;92.87;102429.09;5243502;28;20533;-71
2022/10/12 00:51:32;;;;;;;15.33;5.87;;;;;;;6.87;92.79;102422.78;5246678;28;20122;-70
2022/10/12 00:54:07;;;;;;;13.60;5.63;;;;;;;6.80;94.37;102426.41;5235660;28;20063;-71
2022/10/12 00:56:43;;;;;;;11.60;5.73;;;;;;;6.92;94.02;102437.47;5252472;28;20227;-70
2022/10/12 00:59:20;;;;;;;14.30;5.57;;;;;;;6.97;93.44;102426.06;5249845;28;20075;-70
2022/10/12 01:01:52;;;;;;;9.53;5.53;;;;;;;7.10;91.58;102436.25;5243592;28;20025;-73
2022/10/12 01:04:24;;;;;;;12.40;5.57;;;;;;;7.14;91.87;102432.69;5242426;28;20103;-70
2022/10/12 01:06:55;;;;;;;14.83;6.73;;;;;;;7.21;91.15;102433.47;5253932;28;20033;-70
2022/10/12 01:09:27;;;;;;;16.37;7.53;;;;;;;6.96;92.41;102426.97;5283151;23;20144;-71
2022/10/12 01:11:59;;;;;;;16.30;5.43;;;;;;;6.82;94.60;102435.03;5256036;28;20025;-70
2022/10/12 01:14:30;;;;;;;18.63;6.83;;;;;;;6.94;96.23;102420.94;5256690;28;20029;-71
2022/10/12 01:17:17;;;;;;;20.07;6.23;;;;;;;7.00;97.31;102410.38;5255199;28;20471;-70
2022/10/12 01:20:06;;;;;;;18.97;7.87;;;;;;;6.93;98.91;102413.97;5255649;28;20040;-71
2022/10/12 01:22:48;;;;;;;17.23;6.93;;;;;;;6.90;100.00;102399.28;5257125;28;20116;-71
2022/10/12 01:25:34;;;;;;;17.83;7.03;;;;;;;6.92;100.00;102412.28;5256064;28;20116;-71
2022/10/12 01:28:28;;;;;;;20.57;6.10;;;;;;;6.94;100.00;102389.66;5256281;28;20032;-72
2022/10/12 01:31:11;;;;;;;22.57;6.07;;;;;;;6.91;100.00;102387.13;5234325;28;20419;-71
2022/10/12 01:33:52;;;;;;;16.90;6.03;;;;;;;6.74;100.00;102388.28;5234963;28;20544;-71
2022/10/12 01:36:34;;;;;;;17.97;5.87;;;;;;;6.78;100.00;102397.78;5236051;28;20036;-71
2022/10/12 01:39:23;;;;;;;13.87;5.73;;;;;;;7.02;100.00;102395.59;5244073;28;20069;-71
2022/10/12 01:41:59;;;;;;;13.57;6.13;;;;;;;6.74;100.00;102395.25;5255059;28;20479;-71
2022/10/12 01:44:31;;;;;;;19.83;6.50;;;;;;;6.72;100.00;102384.84;5256937;28;20025;-71
2022/10/12 01:47:03;;;;;;;19.03;6.67;;;;;;;6.84;100.00;102388.97;5259084;28;20032;-71
2022/10/12 01:49:34;;;;;;;15.67;7.10;;;;;;;6.69;100.00;102390.13;5254705;28;20079;-71
2022/10/12 01:52:17;;;;;;;14.73;6.33;;;;;;;6.69;100.00;102379.72;5257113;28;20045;-71
2022/10/12 01:55:11;;;;;;;17.80;6.60;;;;;;;6.69;100.00;102379.72;5257462;28;20064;-71
2022/10/12 01:58:07;;;;;;;13.53;6.10;;;;;;;6.78;100.00;102378.69;5240374;28;20560;-71
2022/10/12 02:00:51;;;;;;;19.07;6.30;;;;;;;6.67;100.00;102371.06;5254943;28;20278;-71
2022/10/12 02:03:30;;;;;;;21.58;6.70;;;;;;;6.78;100.00;102384.75;5253603;28;20336;-72
2022/10/12 02:06:07;;;;;;;15.67;5.83;;;;;;;6.70;100.00;102375.38;5252812;28;20032;-71
2022/10/12 02:09:06;;;;;;;15.83;6.07;;;;;;;6.74;100.00;102375.28;5254373;28;20037;-71
2022/10/12 02:11:40;;;;;;;14.63;6.90;;;;;;;6.44;100.00;102364.53;5256503;28;20047;-71
2022/10/12 02:14:15;;;;;;;18.67;6.97;;;;;;;6.60;100.00;102365.13;5253611;28;20037;-71
2022/10/12 02:16:51;;;;;;;20.10;7.03;;;;;;;6.63;100.00;102362.44;5255301;28;20287;-71
2022/10/12 02:19:27;;;;;;;17.73;5.37;;;;;;;6.53;100.00;102366.09;5251843;28;20391;-71
2022/10/12 02:22:01;;;;;;;17.03;6.77;;;;;;;6.59;100.00;102367.75;5254677;28;20108;-71
2022/10/12 02:24:37;;;;;;;13.50;6.75;;;;;;;6.56;100.00;102358.28;5254015;28;20090;-71
2022/10/12 02:27:11;;;;;;;15.87;5.93;;;;;;;6.54;100.00;102357.44;5255233;28;20055;-71
2022/10/12 02:29:45;;;;;;;12.10;6.47;;;;;;;6.48;100.00;102358.41;5254939;28;20059;-71
2022/10/12 02:32:22;;;;;;;;;;;;;;;6.79;100.00;102356.94;5248571;28;20032;-71
2022/10/12 02:35:05;;;;;;;15.50;5.90;;;;;;;6.58;100.00;102353.03;5254209;28;19943;-71
2022/10/12 02:37:42;;;;;;;13.60;5.97;;;;;;;6.43;100.00;102357.63;5253828;28;20033;-71
2022/10/12 02:40:32;;;;;;;13.67;5.97;;;;;;;6.61;100.00;102366.84;5253065;28;20107;-71
2022/10/12 02:43:28;;;;;;;16.63;6.30;;;;;;;6.56;100.00;102365.22;5254679;28;20040;-71
2022/10/12 02:46:01;;;;;;;20.00;7.27;;;;;;;6.32;100.00;102355.19;5252603;28;20071;-70
2022/10/12 02:48:34;;;;;;;15.47;6.07;;;;;;;6.23;100.00;102355.38;5252354;28;20021;-70
2022/10/12 02:51:07;;;;;;;19.53;7.27;;;;;;;6.28;100.00;102354.38;5254784;28;20029;-70
2022/10/12 02:53:39;;;;;;;15.73;6.77;;;;;;;6.21;100.00;102346.72;5255580;28;20124;-70
2022/10/12 02:56:13;;;;;;;11.60;5.93;;;;;;;6.31;100.00;102347.41;5254058;28;20108;-70
2022/10/12 02:58:46;;;;;;;14.38;5.45;;;;;;;6.13;100.00;102339.03;5253425;28;20044;-70
2022/10/12 03:01:17;;;;;;;14.93;6.87;;;;;;;6.14;100.00;102338.19;5253843;28;20154;-70
2022/10/12 03:03:49;;;;;;;13.73;6.80;;;;;;;6.13;100.00;102339.03;5252709;28;20124;-70
2022/10/12 03:06:20;;;;;;;12.53;5.80;;;;;;;6.12;100.00;102335.59;5254198;28;20562;-70
2022/10/12 03:08:52;;;;;;;15.50;5.40;;;;;;;6.08;100.00;102341.72;5258534;28;20120;-71
2022/10/12 03:11:23;;;;;;;16.73;6.97;;;;;;;5.97;100.00;102339.25;5259144;28;20041;-70
2022/10/12 03:13:56;;;;;;;14.60;6.30;;;;;;;5.97;100.00;102334.06;5259027;28;20211;-70
2022/10/12 03:16:27;;;;;;;16.87;7.00;;;;;;;6.03;100.00;102331.38;5258994;28;20626;-70
2022/10/12 03:18:58;;;;;;;15.10;6.73;;;;;;;5.91;100.00;102345.44;5258502;28;20117;-70
2022/10/12 03:21:30;;;;;;;17.60;6.63;;;;;;;6.07;100.00;102328.75;5258954;28;20029;-70
2022/10/12 03:24:01;;;;;;;18.97;6.60;;;;;;;5.84;100.00;102343.81;5257391;28;20033;-70
2022/10/12 03:26:33;;;;;;;10.50;5.70;;;;;;;5.79;100.00;102336.09;5259014;28;20025;-70
2022/10/12 03:29:04;;;;;;;15.87;6.67;;;;;;;6.03;100.00;102333.13;5258668;28;20027;-71
2022/10/12 03:31:35;;;;;;;14.63;5.50;;;;;;;5.75;100.00;102329.22;5258716;28;20025;-70
2022/10/12 03:34:07;;;;;;;10.97;5.90;;;;;;;5.91;100.00;102344.56;5257983;28;20033;-70
2022/10/12 03:36:38;;;;;;;15.67;6.50;;;;;;;5.82;100.00;102340.38;5258246;28;20414;-71
2022/10/12 03:39:10;;;;;;;20.87;7.23;;;;;;;5.66;100.00;102335.41;5258113;28;20029;-71
2022/10/12 03:41:41;;;;;;;18.63;6.73;;;;;;;5.77;100.00;102337.84;5257013;28;20025;-70
2022/10/12 03:44:13;;;;;;;14.60;6.47;;;;;;;5.71;100.00;102329.28;5257863;28;20367;-71
2022/10/12 03:46:44;;;;;;;14.17;6.20;;;;;;;5.63;100.00;102329.41;5258193;28;20032;-70
2022/10/12 03:49:15;;;;;;;8.67;5.53;;;;;;;5.64;100.00;102334.56;5257307;28;20033;-70
2022/10/12 03:51:46;;;;;;;14.90;6.03;;;;;;;5.64;100.00;102336.31;5257111;28;20024;-70
2022/10/12 03:54:18;;;;;;;13.13;5.77;;;;;;;5.61;100.00;102334.63;5260923;28;20471;-71
2022/10/12 03:56:49;;;;;;;12.93;6.43;;;;;;;5.66;100.00;102324.16;5260044;28;20036;-70
2022/10/12 03:59:20;;;;;;;13.50;6.50;;;;;;;5.57;100.00;102328.59;5257391;28;20048;-70
2022/10/12 04:01:52;;;;;;;12.47;6.67;;;;;;;5.62;100.00;102320.72;5257180;28;20043;-71
2022/10/12 04:04:23;;;;;;;10.40;6.20;;;;;;;5.57;100.00;102320.81;5255447;28;20021;-70
2022/10/12 04:06:54;;;;;;;11.53;6.03;;;;;;;5.60;100.00;102319.91;5255807;28;20025;-70
2022/10/12 04:09:26;;;;;;;17.53;6.10;;;;;;;5.63;100.00;102319.00;5257863;28;20045;-71
2022/10/12 04:11:57;;;;;;;15.40;6.63;;;;;;;5.50;100.00;102311.38;5257501;28;20029;-70
2022/10/12 04:14:28;;;;;;;16.20;7.00;;;;;;;5.55;100.00;102325.16;5257172;28;20025;-71
2022/10/12 04:16:59;;;;;;;16.03;6.93;;;;;;;5.42;100.00;102321.03;5255738;28;20036;-71
2022/10/12 04:19:31;;;;;;;13.83;7.40;;;;;;;5.61;100.00;102320.75;5256543;28;20036;-71
2022/10/12 04:22:02;;;;;;;15.30;6.43;;;;;;;5.39;100.00;102319.34;5258805;28;20043;-70
2022/10/12 04:24:33;;;;;;;16.70;7.30;;;;;;;5.44;100.00;102324.47;5256968;28;20041;-71
2022/10/12 04:27:05;;;;;;;11.73;6.80;;;;;;;5.75;100.00;102324.03;5257046;28;20482;-72
2022/10/12 04:29:36;;;;;;;11.93;6.00;;;;;;;5.50;100.00;102329.56;5255810;28;20029;-70
2022/10/12 04:32:08;;;;;;;12.83;6.20;;;;;;;5.56;100.00;102323.44;5257047;28;20037;-70
2022/10/12 04:34:39;;;;;;;14.93;7.27;;;;;;;5.59;100.00;102323.38;5256267;28;20086;-70
2022/10/12 04:37:10;;;;;;;14.80;6.70;;;;;;;5.63;100.00;102319.00;5257387;28;20818;-70
2022/10/12 04:39:41;;;;;;;19.37;7.20;;;;;;;5.47;100.00;102314.03;5256349;28;20028;-70
2022/10/12 04:42:13;;;;;;;13.77;6.73;;;;;;;5.47;100.00;102307.97;5256662;28;20025;-70
2022/10/12 04:44:44;;;;;;;16.33;7.57;;;;;;;5.45;100.00;102321.84;5257173;28;20085;-70
2022/10/12 04:47:15;;;;;;;11.40;6.33;;;;;;;5.48;100.00;102333.09;5254971;28;20029;-70
2022/10/12 04:49:47;;;;;;;12.07;6.63;;;;;;;5.47;100.00;102329.63;5256961;28;20025;-70
2022/10/12 04:52:18;;;;;;;17.53;6.90;;;;;;;5.45;100.00;102331.38;5255921;28;20029;-70
2022/10/12 04:54:49;;;;;;;13.07;7.13;;;;;;;5.27;100.00;102307.38;5255755;28;20021;-70
2022/10/12 04:57:20;;;;;;;15.87;6.50;;;;;;;5.22;100.00;102316.97;5256638;28;20115;-71
2022/10/12 04:59:52;;;;;;;15.57;6.90;;;;;;;5.30;100.00;102329.84;5256108;28;20040;-71
2022/10/12 05:02:23;;;;;;;11.23;6.60;;;;;;;5.36;100.00;102324.56;5255226;28;20025;-70
2022/10/12 05:04:54;;;;;;;15.23;7.43;;;;;;;5.26;100.00;102323.84;5256365;28;20464;-70
2022/10/12 05:07:25;;;;;;;11.77;7.00;;;;;;;5.29;100.00;102333.31;5256524;28;20035;-72
2022/10/12 05:09:57;;;;;;;12.00;7.53;;;;;;;5.28;100.00;102319.50;5256374;28;20045;-69
2022/10/12 05:12:28;;;;;;;11.97;6.63;;;;;;;5.28;100.00;102326.41;5255575;28;20033;-72
2022/10/12 05:14:59;;;;;;;15.13;7.77;;;;;;;5.29;100.00;102320.34;5256155;28;20075;-71
2022/10/12 05:17:30;;;;;;;18.23;8.10;;;;;;;5.15;100.00;102303.19;5255720;28;20041;-72
2022/10/12 05:20:02;;;;;;;13.80;7.87;;;;;;;5.27;100.00;102307.38;5256548;28;20037;-71
2022/10/12 05:22:33;;;;;;;16.63;7.37;;;;;;;5.28;100.00;102311.69;5256538;28;20021;-71
2022/10/12 05:25:06;;;;;;;16.30;7.37;;;;;;;5.16;100.00;102298.88;5256393;28;20668;-72
2022/10/12 05:27:37;;;;;;;20.73;7.63;;;;;;;5.03;100.00;102296.44;5256198;28;20464;-71
2022/10/12 05:30:09;;;;;;;16.00;7.67;;;;;;;5.13;100.00;102296.31;5255346;28;20033;-72
2022/10/12 05:32:42;;;;;;;15.27;7.60;;;;;;;5.18;100.00;102302.31;5255863;28;20068;-72
2022/10/12 05:35:14;;;;;;;24.33;7.47;;;;;;;5.11;100.00;102287.69;5256572;28;20037;-72
2022/10/12 05:37:45;;;;;;;17.57;8.87;;;;;;;4.97;100.00;102296.53;5256045;28;20017;-72
2022/10/12 05:40:17;;;;;;;17.73;7.23;;;;;;;5.04;100.00;102292.97;5255663;28;20452;-72
2022/10/12 05:42:48;;;;;;;18.23;8.83;;;;;;;5.14;100.00;102301.50;5255770;28;20484;-72
2022/10/12 05:45:19;;;;;;;11.10;6.77;;;;;;;4.95;100.00;102301.75;5256181;28;20031;-70
2022/10/12 05:47:51;;;;;;;15.70;7.23;;;;;;;5.00;100.00;102298.22;5255245;28;20475;-71
2022/10/12 05:50:22;;;;;;;13.47;7.87;;;;;;;5.05;100.00;102299.88;5255900;28;20486;-72
2022/10/12 05:52:53;;;;;;;16.87;7.27;;;;;;;5.18;100.00;102286.72;5255714;28;20442;-71
2022/10/12 05:55:24;;;;;;;15.00;7.47;;;;;;;5.17;100.00;102290.19;5256812;28;20367;-71
2022/10/12 05:57:56;;;;;;;13.80;7.00;;;;;;;5.10;100.00;102305.00;5258849;28;20718;-71
2022/10/12 06:00:27;;;;;;;14.53;7.30;;;;;;;5.27;100.00;102296.97;5255459;28;20494;-71
2022/10/12 06:02:58;;;;;;;12.90;7.73;;;;;;;5.30;100.00;102301.28;5254250;28;20021;-71
2022/10/12 06:05:29;;;;;;;14.97;7.00;;;;;;;5.11;100.00;102283.38;5255225;28;20036;-71
2022/10/12 06:08:01;;;;;;;16.80;7.30;;;;;;;5.19;100.00;102304.03;5254719;28;20039;-71
2022/10/12 06:10:32;;;;;;;20.03;7.97;;;;;;;5.23;100.00;102295.31;5255176;28;20080;-71
2022/10/12 06:13:03;;;;;;;13.90;7.97;;;;;;;5.38;100.00;102304.63;5259029;28;20036;-71
2022/10/12 06:15:35;;;;;;;14.03;6.90;;;;;;;5.46;100.00;102291.53;5255617;28;20029;-71
2022/10/12 06:18:06;;;;;;;16.60;7.53;;;;;;;5.37;100.00;102296.84;5253925;28;20033;-69
2022/10/12 06:20:37;;;;;;;14.47;7.33;;;;;;;5.49;100.00;102291.47;5254444;28;20032;-71
2022/10/12 06:23:09;;;;;;;17.77;7.60;;;;;;;5.36;100.00;102292.56;5253477;28;20020;-71
2022/10/12 06:25:40;;;;;;;22.63;7.37;;;;;;;5.48;100.00;102291.50;5253704;28;20036;-71
2022/10/12 06:28:13;;;;;;;19.77;7.83;;;;;;;5.67;100.00;102290.31;5253346;28;20518;-71
2022/10/12 06:30:45;;;;;;;13.33;7.23;;;;;;;5.70;100.00;102289.44;5254723;28;20496;-73
2022/10/12 06:33:16;;;;;;;19.30;7.97;;;;;;;5.67;100.00;102295.53;5252796;28;20155;-71
2022/10/12 06:35:48;;;;;;;16.13;8.13;;;;;;;5.66;100.00;102293.81;5253053;28;20481;-71
2022/10/12 06:38:20;;;;;;;24.63;10.50;;;;;;;5.89;100.00;102294.31;5243810;28;20356;-71
2022/10/12 06:40:52;;;;;;;22.03;9.50;;;;;;;5.76;100.00;102286.72;5260953;28;20040;-73
2022/10/12 06:43:23;;;;;;;14.47;8.53;;;;;;;5.79;100.00;102284.09;5263191;28;20022;-71
2022/10/12 06:45:59;;;;;;;22.50;8.13;;;;;;;5.96;100.00;102284.69;5259875;28;20032;-71
2022/10/12 06:48:30;;;;;;;20.33;8.03;;;;;;;5.96;100.00;102295.94;5258864;28;20166;-72
2022/10/12 06:51:02;;;;;;;26.87;9.77;;;;;;;6.09;100.00;102290.56;5256469;28;20147;-72
2022/10/12 06:53:33;;;;;;;20.13;9.83;;;;;;;5.97;100.00;102283.81;5259448;28;20032;-71
2022/10/12 06:56:06;;;;;;;18.43;9.77;;;;;;;6.12;100.00;102286.19;5261677;28;20112;-72
2022/10/12 06:58:38;;;;;;;33.73;10.50;;;;;;;6.17;100.00;102286.09;5259639;28;20719;-71
2022/10/12 07:01:09;;;;;;;20.20;8.93;;;;;;;6.17;100.00;102278.28;5263617;28;20029;-72
2022/10/12 07:03:40;;;;;;;18.20;8.80;;;;;;;6.27;100.00;102295.44;5277422;28;20849;-71
2022/10/12 07:06:13;;;;;;;20.57;9.90;;;;;;;6.43;100.00;102300.34;5260835;28;20025;-71
2022/10/12 07:08:44;;;;;;;18.20;9.27;;;;;;;6.27;100.00;102276.34;5260739;28;20020;-72
2022/10/12 07:11:15;;;;;;;17.87;10.00;;;;;;;6.27;100.00;102285.03;5258287;28;20053;-73
2022/10/12 07:13:47;;;;;;;25.03;10.03;;;;;;;6.27;100.00;102286.78;5259600;28;20658;-75
2022/10/12 07:16:18;;;;;;;17.03;9.80;;;;;;;6.21;100.00;102299.91;5258061;28;20036;-70
2022/10/12 07:18:49;;;;;;;25.67;10.17;;;;;;;6.31;100.00;102295.38;5257653;28;20025;-71
2022/10/12 07:21:20;;;;;;;21.67;10.67;;;;;;;6.31;100.00;102284.97;5258765;28;20025;-72
2022/10/12 07:23:52;;;;;;;17.70;9.93;;;;;;;6.46;100.00;102287.28;5258561;28;20083;-71
2022/10/12 07:26:23;;;;;;;15.40;10.50;;;;;;;6.44;100.00;102288.22;5258566;28;20117;-71
2022/10/12 07:28:54;;;;;;;18.23;9.67;;;;;;;6.52;100.00;102281.97;5255701;28;20043;-72
2022/10/12 07:31:26;;;;;;;22.57;10.40;;;;;;;6.36;100.00;102272.72;5258738;28;20107;-71
2022/10/12 07:33:57;;;;;;;20.50;10.93;;;;;;;6.41;100.00;102271.75;5257482;28;20055;-71
2022/10/12 07:36:28;;;;;;;17.03;9.17;;;;;;;6.63;100.00;102286.13;5257733;28;20116;-71
2022/10/12 07:38:59;;;;;;;21.90;11.03;;;;;;;6.55;100.00;102283.66;5258264;28;20028;-72
2022/10/12 07:41:31;;;;;;;20.33;10.10;;;;;;;6.68;100.00;102283.41;5258728;28;20032;-72
2022/10/12 07:44:02;;;;;;;19.93;11.20;;;;;;;6.51;100.00;102289.81;5257533;28;20036;-72
2022/10/12 07:46:33;;;;;;;20.53;10.80;;;;;;;6.45;100.00;102274.31;5259099;28;20032;-72
2022/10/12 07:49:05;;;;;;;16.17;11.03;;;;;;;6.69;100.00;102280.78;5257801;28;20063;-71
2022/10/12 07:51:36;;;;;;;22.80;11.77;;;;;;;6.87;100.00;102294.31;5257407;28;20025;-73
2022/10/12 07:54:08;;;;;;;21.80;12.60;;;;;;;6.97;100.00;102293.22;5258134;28;20073;-73
2022/10/12 07:56:40;;;;;;;31.00;13.57;;;;;;;7.22;100.00;102292.69;5258807;28;20025;-71
2022/10/12 07:59:11;;;;;;;22.60;12.67;;;;;;;7.53;100.00;102293.72;5258017;28;20666;-71
2022/10/12 08:01:42;;;;;;;20.90;11.87;;;;;;;7.67;100.00;102285.59;5257366;28;20021;-74
2022/10/12 08:04:13;;;;;;;25.03;12.40;;;;;;;8.23;100.00;102297.25;5256963;28;20434;-71
2022/10/12 08:06:45;;;;;;;24.17;12.43;;;;;;;8.78;100.00;102298.38;5257030;28;20460;-71
2022/10/12 08:09:16;;;;;;;22.70;11.97;;;;;;;9.61;100.00;102305.50;5257586;28;20024;-72
2022/10/12 08:11:48;;;;;;;21.53;11.80;;;;;;;10.34;100.00;102300.44;5257974;28;20452;-72
2022/10/12 08:14:19;;;;;;;19.10;12.27;;;;;;;11.04;100.00;102304.94;5258193;28;20025;-72
2022/10/12 08:16:50;;;;;;;24.53;11.93;;;;;;;11.86;97.75;102282.44;5257058;28;20029;-72
2022/10/12 08:19:21;;;;;;;21.73;11.00;;;;;;;13.22;92.17;102298.38;5257087;28;20064;-74
2022/10/12 08:21:53;;;;;;;23.00;10.73;;;;;;;14.01;84.36;102286.66;5257639;28;20029;-72
2022/10/12 08:24:24;;;;;;;22.33;12.07;;;;;;;14.77;77.38;102283.56;5256119;28;20035;-73
2022/10/12 08:26:56;;;;;;;22.27;11.50;;;;;;;14.62;73.83;102275.59;5257623;28;20036;-72
2022/10/12 08:29:27;;;;;;;22.30;11.20;;;;;;;14.20;74.95;102277.78;5257441;28;20534;-72
2022/10/12 08:32:00;;;;;;;32.43;11.37;;;;;;;13.58;76.62;102280.94;5255012;28;20590;-72
2022/10/12 08:34:31;;;;;;;27.50;11.87;;;;;;;12.89;80.67;102284.13;5256254;28;20021;-72
2022/10/12 08:37:03;;;;;;;26.43;12.23;;;;;;;12.50;83.00;102276.22;5256832;28;20025;-73
2022/10/12 08:39:34;;;;;;;22.17;11.43;;;;;;;12.43;83.70;102274.81;5256205;28;20029;-72
2022/10/12 08:42:28;;;;;;;24.50;11.27;;;;;;;12.67;87.72;102282.53;5257187;28;20562;-72
2022/10/12 08:45:23;;;;;;;23.33;11.03;;;;;;;14.19;79.70;102275.25;5257215;28;20025;-72
2022/10/12 08:48:00;;;;;;;21.05;11.05;;;;;;;15.02;70.78;102276.13;5255147;28;20113;-72
2022/10/12 08:50:34;;;;;;;21.33;10.60;;;;;;;16.39;65.13;102275.28;5256820;28;20031;-72
2022/10/12 08:53:22;;;;;;;;;;;;;;;18.21;72.60;102277.66;5255782;28;20040;-73
2022/10/12 08:55:55;;;;;;;20.13;10.10;;;;;;;17.29;54.94;102274.06;5255232;28;19916;-73
2022/10/12 08:58:32;;;;;;;18.60;10.13;;;;;;;16.99;56.48;102285.66;5257232;28;20068;-72
2022/10/12 09:01:31;;;;;;;17.87;9.83;;;;;;;17.40;55.94;102287.41;5256447;28;20467;-74
2022/10/12 09:04:25;;;;;;;15.57;8.93;;;;;;;19.07;56.58;102285.75;5254219;28;20490;-72
2022/10/12 09:07:18;;;;;;;19.30;9.57;;;;;;;19.95;54.52;102290.75;5244223;28;20033;-72
2022/10/12 09:09:58;;;;;;;21.33;8.67;;;;;;;20.60;48.66;102291.97;5256468;28;20045;-74
2022/10/12 09:12:50;;;;;;;24.15;9.38;;;;;;;21.06;48.06;102285.72;5256460;28;20347;-73
2022/10/12 09:15:27;;;;;;;23.00;10.43;;;;;;;21.30;44.43;102295.31;5255913;28;20089;-73
2022/10/12 09:18:01;;;;;;;36.17;9.45;;;;;;;20.74;45.13;102296.19;5253864;28;20487;-72
2022/10/12 09:20:38;;;;;;;;;;;;;;;22.47;47.44;102296.13;5255892;28;20033;-73
2022/10/12 09:23:27;;;;;;;16.80;8.38;;;;;;;22.23;46.05;102300.84;5254892;28;19916;-72
2022/10/12 09:26:12;;;;;;;22.38;9.75;;;;;;;22.46;43.87;102292.63;5255042;28;20384;-73
2022/10/12 09:28:49;;;;;;;18.50;8.98;;;;;;;22.02;41.22;102294.69;5255070;28;20040;-73
2022/10/12 09:31:41;;;;;;;19.88;10.05;;;;;;;23.64;41.75;102292.88;5255996;28;20032;-73
2022/10/12 09:34:12;;;;;;;21.67;8.95;;;;;;;23.12;39.00;102292.22;5256051;28;20032;-72
2022/10/12 09:36:44;;;;;;;20.20;9.35;;;;;;;23.07;37.11;102281.09;5256364;28;20032;-73
2022/10/12 09:39:28;;;;;;;17.17;8.80;;;;;;;23.95;38.36;102289.16;5255752;28;20128;-72
2022/10/12 09:41:59;;;;;;;16.63;9.73;;;;;;;23.46;36.95;102298.13;5254549;28;20025;-73
2022/10/12 09:44:33;;;;;;;21.88;9.60;;;;;;;23.19;36.71;102293.34;5254897;28;20023;-72
2022/10/12 09:47:22;;;;;;;18.30;10.30;;;;;;;23.32;36.86;102297.53;5255149;28;20029;-73
2022/10/12 09:50:03;;;;;;;16.33;10.07;;;;;;;23.19;37.16;102292.50;5255806;28;20098;-73
2022/10/12 09:52:35;;;;;;;20.13;11.27;;;;;;;21.92;39.13;102300.84;5254210;28;20051;-72
2022/10/12 09:55:13;;;;;;;29.38;10.30;;;;;;;22.01;39.05;102288.50;5254393;28;20033;-73
2022/10/12 09:57:53;;;;;;;20.15;10.98;;;;;;;21.95;39.59;102287.25;5255333;28;20025;-72
2022/10/12 10:00:24;;;;;;;22.42;11.35;;;;;;;20.67;39.99;102279.03;5256182;28;20049;-72
2022/10/12 10:02:57;;;;;;;22.95;11.15;;;;;;;20.60;40.89;102273.34;5254542;28;20064;-73
2022/10/12 10:05:36;;;;;;;21.13;10.32;;;;;;;20.63;41.62;102269.59;5254501;28;20028;-73
2022/10/12 10:08:18;;;;;;;19.73;11.48;;;;;;;20.37;42.22;102260.06;5253723;28;20029;-73
2022/10/12 10:10:54;;;;;;;23.58;11.15;;;;;;;19.14;45.00;102256.09;5255895;28;20094;-75
2022/10/12 10:13:29;;;;;;;20.15;9.65;;;;;;;19.30;43.06;102247.84;5256534;28;20472;-75
2022/10/12 10:16:09;;;;;;;24.58;11.27;;;;;;;18.54;45.42;102251.50;5258822;28;20025;-76
2022/10/12 10:18:47;;;;;;;25.75;10.63;;;;;;;18.26;46.45;102256.97;5259531;28;20021;-79
2022/10/12 10:21:28;;;;;;;20.88;9.48;;;;;;;18.13;46.47;102265.78;5258569;28;20071;-79
2022/10/12 10:24:19;;;;;;;19.33;10.17;;;;;;;17.70;46.72;102253.66;5256897;28;20119;-77
2022/10/12 10:26:58;;;;;;;18.47;8.93;;;;;;;18.20;45.57;102257.41;5258589;28;20055;-79
2022/10/12 10:29:39;;;;;;;18.93;9.03;;;;;;;17.29;48.38;102260.81;5258805;28;20055;-79
2022/10/12 10:32:27;;;;;;;18.43;8.07;;;;;;;17.21;47.81;102231.34;5257557;28;20471;-81
2022/10/12 10:35:20;;;;;;;17.43;8.87;;;;;;;17.56;48.18;102251.97;5258626;28;20025;-79
2022/10/12 10:37:55;;;;;;;19.30;8.00;;;;;;;17.66;47.41;102226.53;5258710;28;20126;-78
2022/10/12 10:40:29;;;;;;;17.27;8.50;;;;;;;17.78;47.92;102246.03;5258573;28;20482;-76
2022/10/12 10:43:15;;;;;;;17.73;7.95;;;;;;;17.35;48.31;102247.16;5258274;28;20032;-78
2022/10/12 10:45:51;;;;;;;18.20;7.30;;;;;;;17.43;47.27;102225.47;5258586;28;20075;-81
2022/10/12 10:48:31;;;;;;;16.50;7.67;;;;;;;17.49;48.17;102248.06;5257883;28;20387;-77
2022/10/12 10:51:05;;;;;;;14.07;6.27;;;;;;;17.57;46.66;102216.59;5258254;28;20044;-80
2022/10/12 10:53:46;;;;;;;16.53;5.63;;;;;;;17.72;46.97;102229.72;5258479;28;20044;-80
2022/10/12 10:56:24;;;;;;;19.37;6.73;;;;;;;17.17;47.65;102252.72;5257954;28;20106;-75
2022/10/12 10:59:02;;;;;;;11.73;5.27;;;;;;;16.95;47.34;102229.41;5255451;28;20133;-75
2022/10/12 11:01:44;;;;;;;25.30;6.83;;;;;;;17.25;46.47;102223.09;5255371;28;20461;-75
2022/10/12 11:04:20;;;;;;;12.80;5.70;;;;;;;17.36;47.15;102224.19;5256001;28;20457;-75
2022/10/12 11:06:56;;;;;;;12.97;6.07;;;;;;;16.87;48.34;102229.94;5255256;28;20029;-72
2022/10/12 11:09:38;;;;;;;18.77;6.20;;;;;;;17.01;47.14;102225.53;5254522;28;20059;-71
2022/10/12 11:12:20;;;;;;;16.50;5.93;;;;;;;16.98;48.55;102223.09;5255375;28;20064;-71
2022/10/12 11:14:57;;;;;;;13.53;5.77;;;;;;;16.99;48.71;102211.56;5254177;28;20053;-73
2022/10/12 11:17:33;;;;;;;15.37;6.17;;;;;;;16.75;48.68;102214.84;5255055;28;20079;-71
2022/10/12 11:20:23;;;;;;;10.33;5.60;;;;;;;16.64;48.05;102208.47;5255610;28;20064;-71
2022/10/12 11:23:08;;;;;;;13.20;5.63;;;;;;;16.72;48.06;102207.13;5255969;28;20105;-71
2022/10/12 11:25:54;;;;;;;12.07;4.32;;;;;;;16.87;47.43;102192.91;5256118;28;20060;-74
2022/10/12 11:28:30;;;;;;;11.33;5.17;;;;;;;17.36;47.62;102195.06;5258372;28;20040;-74
2022/10/12 11:31:01;;;;;;;12.40;5.30;;;;;;;17.19;46.50;102186.47;5260558;28;20024;-75
2022/10/12 11:33:40;;;;;;;10.63;4.40;;;;;;;17.24;47.34;102186.13;5258615;28;20119;-73
2022/10/12 11:36:19;;;;;;;14.73;5.03;;;;;;;17.04;46.86;102175.03;5258736;28;20025;-74
2022/10/12 11:38:55;;;;;;;13.63;5.53;;;;;;;17.07;47.44;102182.78;5259370;28;20033;-74
2022/10/12 11:41:44;;;;;;;12.07;6.20;;;;;;;17.11;47.41;102155.19;5260724;28;20075;-74
2022/10/12 11:44:35;;;;;;;15.50;4.90;;;;;;;16.93;48.32;102160.72;5261169;28;20025;-73
2022/10/12 11:47:15;;;;;;;12.43;5.23;;;;;;;17.46;46.93;102145.81;5259776;28;20036;-74
2022/10/12 11:49:57;;;;;;;11.43;5.27;;;;;;;17.66;46.47;102155.00;5259607;28;20079;-73
2022/10/12 11:52:37;;;;;;;9.87;4.63;;;;;;;17.78;46.39;102157.78;5261260;28;20037;-75